Time;durP1;ratioP1;P1;durP2;ratioP2;P2;SDS_P1;SDS_P2;PMS_P1;PMS_P2;Temp;Humidity;BMP_temperature;BMP_pressure;BME280_temperature;BME280_humidity;BME280_pressure;Samples;Min_cycle;Max_cycle;Signal;HPM_P1;HPM_P2
2023/09/09 00:01:52;;;;;;;8.25;7.47;;;;;;;19.06;100.00;101002.06;6123721;23;20508;-74
2023/09/09 00:04:19;;;;;;;8.07;7.47;;;;;;;19.13;100.00;101019.22;6094208;23;20510;-75
2023/09/09 00:06:46;;;;;;;8.02;7.43;;;;;;;19.33;100.00;101068.13;6123693;23;20063;-73
2023/09/09 00:09:14;;;;;;;8.77;7.85;;;;;;;19.24;100.00;101074.19;6125215;23;20017;-73
2023/09/09 00:11:41;;;;;;;9.07;8.38;;;;;;;18.70;100.00;100997.00;6121709;23;20223;-77
2023/09/09 00:14:07;;;;;;;7.55;6.85;;;;;;;19.07;100.00;101075.59;6123558;23;20033;-74
2023/09/09 00:16:34;;;;;;;8.02;7.32;;;;;;;19.00;100.00;101079.72;6121089;23;20017;-75
2023/09/09 00:19:02;;;;;;;8.82;8.13;;;;;;;18.57;100.00;101030.84;6122650;23;20037;-75
2023/09/09 00:21:29;;;;;;;8.70;7.90;;;;;;;18.65;100.00;101056.81;6129670;23;20033;-73
2023/09/09 00:23:56;;;;;;;8.30;7.53;;;;;;;18.40;100.00;101034.00;6122882;23;20607;-74
2023/09/09 00:26:23;;;;;;;8.57;7.90;;;;;;;18.83;100.00;101095.25;6119472;23;20613;-75
2023/09/09 00:28:49;;;;;;;8.15;7.47;;;;;;;18.70;100.00;101092.72;6128553;23;20101;-73
2023/09/09 00:31:16;;;;;;;8.98;8.15;;;;;;;18.22;100.00;101012.41;6122494;23;20022;-74
2023/09/09 00:33:45;;;;;;;7.90;7.20;;;;;;;18.71;100.00;101094.38;6102886;23;20053;-74
2023/09/09 00:36:11;;;;;;;8.35;7.65;;;;;;;18.46;100.00;101066.28;6124922;23;20711;-76
2023/09/09 00:38:38;;;;;;;7.97;7.30;;;;;;;18.61;100.00;101101.41;6092419;23;20032;-74
2023/09/09 00:41:15;;;;;;;9.25;7.80;;;;;;;18.58;100.00;101114.09;6125722;23;20735;-74
2023/09/09 00:43:42;;;;;;;8.18;7.47;;;;;;;18.35;100.00;101074.25;6101696;23;20067;-77
2023/09/09 00:46:10;;;;;;;8.45;7.65;;;;;;;18.26;100.00;101067.84;6137753;23;20021;-75
2023/09/09 00:48:38;;;;;;;8.57;7.80;;;;;;;18.46;100.00;101105.28;6098925;23;20022;-76
2023/09/09 00:51:05;;;;;;;8.82;8.15;;;;;;;18.45;100.00;101101.78;6088194;23;20171;-74
2023/09/09 00:53:34;;;;;;;8.95;8.15;;;;;;;18.45;100.00;101106.25;6095604;23;20033;-74
2023/09/09 00:56:03;;;;;;;7.88;7.28;;;;;;;18.44;100.00;101102.75;6115006;23;20085;-75
2023/09/09 00:58:31;;;;;;;9.57;8.70;;;;;;;18.22;100.00;101078.81;6115907;23;20539;-72
2023/09/09 01:00:58;;;;;;;9.32;8.57;;;;;;;18.31;100.00;101088.75;6114622;23;20267;-76
2023/09/09 01:03:24;;;;;;;8.60;7.88;;;;;;;18.05;100.00;101064.22;6091101;23;20084;-74
2023/09/09 01:05:51;;;;;;;8.68;7.88;;;;;;;18.01;100.00;101052.97;6084709;23;20032;-75
2023/09/09 01:08:26;;;;;;;8.82;7.72;;;;;;;18.25;100.00;101105.16;6112708;23;20026;-76
2023/09/09 01:10:53;;;;;;;8.55;7.85;;;;;;;17.73;100.00;101033.84;6114773;23;20527;-75
2023/09/09 01:13:21;;;;;;;8.25;7.55;;;;;;;18.10;100.00;101107.19;6083195;23;20449;-74
2023/09/09 01:15:48;;;;;;;7.78;7.15;;;;;;;17.67;100.00;101036.13;6111670;23;20025;-76
2023/09/09 01:18:17;;;;;;;7.75;7.15;;;;;;;17.95;100.00;101114.53;6111768;23;20537;-76
2023/09/09 01:20:50;;;;;;;8.52;7.82;;;;;;;17.56;100.00;101050.22;6088095;23;20017;-74
2023/09/09 01:23:17;;;;;;;8.50;7.80;;;;;;;17.86;100.00;101109.91;6086907;23;20661;-77
2023/09/09 01:25:43;;;;;;;8.52;7.82;;;;;;;17.67;100.00;101086.56;6094497;23;20029;-75
2023/09/09 01:28:10;;;;;;;8.73;7.95;;;;;;;17.68;100.00;101091.75;6114693;23;20096;-75
2023/09/09 01:30:36;;;;;;;9.98;9.13;;;;;;;17.72;100.00;101102.97;6093470;23;20551;-76
2023/09/09 01:33:03;;;;;;;8.45;7.63;;;;;;;17.73;100.00;101120.59;6118745;23;20093;-76
2023/09/09 01:35:29;;;;;;;8.55;7.90;;;;;;;17.73;100.00;101118.78;6119095;23;20072;-76
2023/09/09 01:37:57;;;;;;;8.85;8.13;;;;;;;17.17;100.00;101032.84;6117997;23;20703;-76
2023/09/09 01:40:23;;;;;;;8.45;7.80;;;;;;;17.46;100.00;101079.25;6093465;23;20419;-77
2023/09/09 01:42:50;;;;;;;9.40;8.50;;;;;;;17.72;100.00;101118.91;6119051;23;20029;-76
2023/09/09 01:45:17;;;;;;;8.57;7.78;;;;;;;17.73;100.00;101124.09;6094750;23;20017;-75
2023/09/09 01:47:43;;;;;;;9.95;8.88;;;;;;;17.58;100.00;101095.22;6092707;23;20045;-76
2023/09/09 01:50:10;;;;;;;9.70;8.32;;;;;;;17.49;100.00;101091.44;6119002;23;20044;-74
2023/09/09 01:52:36;;;;;;;9.45;8.50;;;;;;;17.46;100.00;101071.31;6119129;23;20082;-76
2023/09/09 01:55:03;;;;;;;9.07;8.38;;;;;;;17.47;100.00;101066.84;6114538;23;20079;-74
2023/09/09 01:57:30;;;;;;;9.00;8.27;;;;;;;17.74;100.00;101095.75;6113406;23;20009;-75
2023/09/09 01:59:57;;;;;;;9.98;9.07;;;;;;;17.84;100.00;101117.16;6113563;23;20041;-75
2023/09/09 02:02:23;;;;;;;8.25;7.55;;;;;;;17.85;100.00;101114.38;6094350;23;20466;-74
2023/09/09 02:04:50;;;;;;;9.57;8.60;;;;;;;17.63;100.00;101090.41;6094730;23;20075;-74
2023/09/09 02:07:16;;;;;;;8.50;7.70;;;;;;;17.80;100.00;101110.34;6116689;23;20021;-77
2023/09/09 02:09:44;;;;;;;9.13;7.47;;;;;;;17.79;100.00;101113.97;6116273;23;20029;-75
2023/09/09 02:12:11;;;;;;;8.25;7.55;;;;;;;17.29;100.00;101031.91;6117050;23;20460;-76
2023/09/09 02:14:37;;;;;;;9.02;8.25;;;;;;;16.97;100.00;100990.09;6112675;23;20104;-75
2023/09/09 02:17:03;;;;;;;8.75;8.00;;;;;;;17.71;100.00;101115.41;6093583;23;20088;-76
2023/09/09 02:19:31;;;;;;;9.98;8.35;;;;;;;17.60;100.00;101087.97;6113610;23;20044;-75
2023/09/09 02:21:57;;;;;;;8.88;7.60;;;;;;;17.49;100.00;101076.38;6108596;23;20026;-77
2023/09/09 02:24:24;;;;;;;8.57;7.90;;;;;;;17.63;100.00;101106.34;6116313;23;20034;-77
2023/09/09 02:26:50;;;;;;;8.82;8.02;;;;;;;17.24;100.00;101039.38;6113623;23;20029;-74
2023/09/09 02:29:17;;;;;;;8.27;7.47;;;;;;;17.61;100.00;101106.44;6114058;23;20010;-75
2023/09/09 02:31:44;;;;;;;7.90;7.28;;;;;;;16.40;100.00;100922.72;6113684;23;20615;-76
2023/09/09 02:34:10;;;;;;;9.00;8.10;;;;;;;17.56;100.00;101100.66;6112004;23;20425;-74
2023/09/09 02:36:36;;;;;;;8.95;8.18;;;;;;;16.99;100.00;101022.63;6116421;23;20426;-75
2023/09/09 02:39:03;;;;;;;8.30;7.60;;;;;;;17.24;100.00;101077.38;6111571;23;20038;-75
2023/09/09 02:41:30;;;;;;;7.90;7.20;;;;;;;17.31;100.00;101106.94;6086760;23;20027;-74
2023/09/09 02:43:56;;;;;;;8.00;7.40;;;;;;;16.06;100.00;100922.50;6113241;23;20057;-75
2023/09/09 02:46:22;;;;;;;8.50;7.80;;;;;;;17.17;100.00;101110.59;6114592;23;20021;-76
2023/09/09 02:48:49;;;;;;;8.15;7.45;;;;;;;16.74;100.00;101050.94;6087821;23;20025;-75
2023/09/09 02:51:16;;;;;;;8.80;8.00;;;;;;;17.09;100.00;101113.81;6109149;23;20148;-73
2023/09/09 02:53:43;;;;;;;7.88;7.22;;;;;;;16.88;100.00;101105.63;6096886;23;20037;-75
2023/09/09 02:56:09;;;;;;;7.22;6.72;;;;;;;16.83;100.00;101099.78;6115781;23;20024;-73
2023/09/09 02:58:35;;;;;;;8.23;7.50;;;;;;;16.90;100.00;101129.38;6111649;23;20032;-73
2023/09/09 03:01:04;;;;;;;7.40;6.80;;;;;;;16.87;100.00;101132.22;6110532;23;20021;-73
2023/09/09 03:03:31;;;;;;;8.45;7.68;;;;;;;16.55;100.00;101090.28;6089502;23;20056;-74
2023/09/09 03:06:00;;;;;;;8.10;7.50;;;;;;;16.85;100.00;101147.41;6116389;23;20334;-75
2023/09/09 03:08:27;;;;;;;8.63;7.55;;;;;;;16.76;100.00;101127.69;6085229;23;20041;-76
2023/09/09 03:10:53;;;;;;;7.22;6.65;;;;;;;16.39;100.00;101057.91;6111413;23;20097;-74
2023/09/09 03:13:20;;;;;;;7.78;7.15;;;;;;;16.95;100.00;101140.47;6114936;23;20029;-75
2023/09/09 03:15:46;;;;;;;9.82;7.72;;;;;;;16.41;100.00;101048.03;6115930;23;20033;-74
2023/09/09 03:18:13;;;;;;;8.40;7.68;;;;;;;16.97;100.00;101127.97;6112112;23;20717;-74
2023/09/09 03:20:39;;;;;;;8.27;7.57;;;;;;;16.98;100.00;101131.44;6085940;23;20081;-75
2023/09/09 03:23:06;;;;;;;7.57;6.97;;;;;;;16.98;100.00;101134.97;6091961;23;20041;-74
2023/09/09 03:25:33;;;;;;;8.48;7.68;;;;;;;16.96;100.00;101128.94;6084352;23;20589;-74
2023/09/09 03:28:00;;;;;;;8.98;7.68;;;;;;;16.67;100.00;101094.72;6114226;23;20039;-75
2023/09/09 03:30:26;;;;;;;8.70;7.90;;;;;;;16.61;100.00;101095.16;6093603;23;20025;-75
2023/09/09 03:32:53;;;;;;;7.80;7.05;;;;;;;16.80;100.00;101125.63;6116546;23;20069;-74
2023/09/09 03:35:19;;;;;;;8.15;7.35;;;;;;;16.73;100.00;101110.16;6112170;23;20110;-72
2023/09/09 03:37:46;;;;;;;8.15;7.47;;;;;;;16.41;100.00;101066.59;6089887;23;20033;-74
2023/09/09 03:40:12;;;;;;;8.15;7.32;;;;;;;16.83;100.00;101136.06;6085762;23;20104;-75
2023/09/09 03:42:40;;;;;;;8.48;7.68;;;;;;;16.80;100.00;101131.81;6112482;23;20018;-73
2023/09/09 03:45:07;;;;;;;8.45;7.78;;;;;;;16.78;100.00;101139.03;6111376;23;20045;-74
2023/09/09 03:47:34;;;;;;;7.50;6.95;;;;;;;15.81;100.00;101010.72;6091319;23;20247;-74
2023/09/09 03:50:00;;;;;;;8.48;7.70;;;;;;;16.73;100.00;101141.13;6113963;23;20086;-74
2023/09/09 03:52:28;;;;;;;8.40;7.68;;;;;;;16.45;100.00;101127.19;6110659;23;20017;-74
2023/09/09 03:54:54;;;;;;;8.60;7.80;;;;;;;16.62;100.00;101143.69;6112467;23;20052;-74
2023/09/09 03:57:21;;;;;;;8.60;7.80;;;;;;;16.57;100.00;101136.06;6115141;23;20439;-75
2023/09/09 03:59:48;;;;;;;8.48;7.57;;;;;;;15.48;100.00;100968.91;6113859;23;20048;-75
2023/09/09 04:02:15;;;;;;;7.07;6.57;;;;;;;16.51;100.00;101141.81;6114945;23;20421;-73
2023/09/09 04:04:41;;;;;;;6.95;6.45;;;;;;;16.23;100.00;101101.34;6063887;23;20102;-74
2023/09/09 04:07:08;;;;;;;7.63;7.03;;;;;;;16.49;100.00;101144.56;6114888;23;20054;-75
2023/09/09 04:09:40;;;;;;;8.52;7.72;;;;;;;16.49;100.00;101143.72;6110993;23;20030;-75
2023/09/09 04:12:10;;;;;;;;;;;;;;;16.48;100.00;101150.81;6113790;23;20050;-76
2023/09/09 04:14:39;;;;;;;7.47;6.88;;;;;;;16.48;100.00;101156.13;6116224;23;19909;-73
2023/09/09 04:17:07;;;;;;;9.55;8.00;;;;;;;16.21;100.00;101119.16;6089085;23;20539;-74
2023/09/09 04:19:35;;;;;;;8.65;7.80;;;;;;;16.35;100.00;101137.56;6113359;23;20322;-75
2023/09/09 04:22:01;;;;;;;9.18;7.78;;;;;;;16.37;100.00;101136.63;6110711;23;20029;-75
2023/09/09 04:24:28;;;;;;;7.63;7.07;;;;;;;16.40;100.00;101149.66;6107434;23;20165;-76
2023/09/09 04:26:54;;;;;;;7.57;6.95;;;;;;;15.79;100.00;101072.66;6113576;23;20084;-74
2023/09/09 04:29:21;;;;;;;8.15;7.43;;;;;;;16.20;100.00;101137.81;6091611;23;20593;-76
2023/09/09 04:31:47;;;;;;;8.23;7.55;;;;;;;16.27;100.00;101139.91;6113352;23;20033;-75
2023/09/09 04:34:14;;;;;;;8.25;7.57;;;;;;;16.35;100.00;101156.09;6116127;23;20385;-76
2023/09/09 04:36:41;;;;;;;8.93;8.07;;;;;;;16.17;100.00;101138.84;6079771;23;20081;-75
2023/09/09 04:39:08;;;;;;;7.57;7.07;;;;;;;15.94;100.00;101104.22;6109667;23;20114;-73
2023/09/09 04:41:35;;;;;;;8.45;7.78;;;;;;;15.95;100.00;101127.06;6112130;23;20025;-73
2023/09/09 04:44:02;;;;;;;6.90;6.30;;;;;;;15.77;100.00;101109.78;6114414;23;20040;-74
2023/09/09 04:46:28;;;;;;;7.80;7.10;;;;;;;15.51;100.00;101077.13;6086036;23;20109;-76
2023/09/09 04:48:55;;;;;;;7.80;7.20;;;;;;;14.98;100.00;101002.22;6086014;23;20342;-73
2023/09/09 04:51:21;;;;;;;8.65;7.88;;;;;;;15.75;100.00;101122.28;6110654;23;20029;-75
2023/09/09 04:53:50;;;;;;;7.70;7.10;;;;;;;15.82;100.00;101139.47;6114542;23;20038;-74
2023/09/09 04:56:16;;;;;;;7.90;7.28;;;;;;;15.92;100.00;101188.16;6118481;23;20025;-74
2023/09/09 04:58:43;;;;;;;7.70;7.10;;;;;;;15.62;100.00;101131.97;6116494;23;20585;-73
2023/09/09 05:01:10;;;;;;;8.02;7.43;;;;;;;15.98;100.00;101197.50;6115743;23;20021;-76
2023/09/09 05:03:36;;;;;;;7.90;7.30;;;;;;;16.00;100.00;101200.91;6116883;23;20600;-74
2023/09/09 05:06:03;;;;;;;8.05;7.35;;;;;;;15.59;100.00;101129.53;6114259;23;20074;-71
2023/09/09 05:08:30;;;;;;;7.75;7.05;;;;;;;15.98;100.00;101204.63;6114795;23;20022;-73
2023/09/09 05:10:56;;;;;;;7.90;7.20;;;;;;;15.61;100.00;101146.13;6115349;23;20025;-75
2023/09/09 05:13:23;;;;;;;9.20;8.25;;;;;;;15.91;100.00;101186.47;6091113;23;20025;-72
2023/09/09 05:15:50;;;;;;;7.85;7.25;;;;;;;16.08;100.00;101203.03;6087533;23;20083;-75
2023/09/09 05:18:17;;;;;;;7.93;7.13;;;;;;;15.42;100.00;101114.78;6115130;23;20048;-74
2023/09/09 05:20:43;;;;;;;8.93;7.32;;;;;;;16.20;100.00;101212.81;6111864;23;20029;-74
2023/09/09 05:23:10;;;;;;;7.00;6.50;;;;;;;15.32;100.00;101064.28;6117936;23;20052;-74
2023/09/09 05:25:36;;;;;;;8.27;7.32;;;;;;;16.23;100.00;101196.69;6115910;23;20084;-72
2023/09/09 05:28:03;;;;;;;7.53;6.95;;;;;;;16.18;100.00;101172.34;6118898;23;20014;-77
2023/09/09 05:30:30;;;;;;;8.30;7.57;;;;;;;16.25;100.00;101194.78;6110159;23;20521;-75
2023/09/09 05:32:56;;;;;;;7.28;6.78;;;;;;;16.47;100.00;101209.22;6115628;23;20645;-73
2023/09/09 05:35:23;;;;;;;8.68;7.78;;;;;;;16.21;100.00;101155.38;6111903;23;20026;-74
2023/09/09 05:37:49;;;;;;;8.25;6.97;;;;;;;16.31;100.00;101146.69;6118159;23;20022;-73
2023/09/09 05:40:15;;;;;;;7.03;6.43;;;;;;;16.94;100.00;101228.94;6118285;23;20104;-72
2023/09/09 05:42:42;;;;;;;12.80;7.05;;;;;;;16.95;100.00;101212.91;6111024;23;20042;-74
2023/09/09 05:45:09;;;;;;;7.82;7.22;;;;;;;16.59;100.00;101139.47;6114654;23;20059;-73
2023/09/09 05:47:35;;;;;;;8.55;7.70;;;;;;;16.84;100.00;101161.59;6093002;23;20028;-72
2023/09/09 05:50:05;;;;;;;8.43;7.60;;;;;;;15.93;100.00;101012.50;6116911;23;20013;-74
2023/09/09 05:52:31;;;;;;;8.38;7.65;;;;;;;17.11;100.00;101175.53;6089320;23;20006;-73
2023/09/09 05:54:58;;;;;;;8.18;7.45;;;;;;;17.47;100.00;101196.84;6114776;23;20479;-73
2023/09/09 05:57:24;;;;;;;8.40;7.57;;;;;;;17.55;100.00;101192.66;6088775;23;20096;-74
2023/09/09 05:59:51;;;;;;;8.43;7.72;;;;;;;17.46;100.00;101164.19;6090009;23;20090;-73
2023/09/09 06:02:17;;;;;;;8.98;8.07;;;;;;;17.58;100.00;101164.22;6088538;23;20040;-75
2023/09/09 06:04:44;;;;;;;7.75;7.15;;;;;;;17.38;100.00;101121.44;6116725;23;20365;-71
2023/09/09 06:07:11;;;;;;;8.80;7.97;;;;;;;17.38;100.00;101088.75;6087572;23;20028;-73
2023/09/09 06:09:37;;;;;;;9.30;8.07;;;;;;;17.96;100.00;101158.72;6113606;23;20040;-74
2023/09/09 06:12:04;;;;;;;8.45;7.72;;;;;;;18.06;100.00;101165.03;6116304;23;20045;-73
2023/09/09 06:14:30;;;;;;;8.52;7.72;;;;;;;18.09;100.00;101137.38;6088605;23;20499;-74
2023/09/09 06:16:57;;;;;;;8.20;7.30;;;;;;;18.26;100.00;101147.56;6083964;23;20069;-71
2023/09/09 06:19:23;;;;;;;8.15;7.55;;;;;;;18.26;100.00;101126.31;6115559;23;20029;-72
2023/09/09 06:21:50;;;;;;;8.23;7.47;;;;;;;18.44;100.00;101134.66;6112844;23;20025;-74
2023/09/09 06:24:16;;;;;;;8.20;7.43;;;;;;;18.51;100.00;101122.56;6116672;23;20092;-71
2023/09/09 06:26:43;;;;;;;8.00;7.30;;;;;;;18.43;100.00;101076.28;6064022;23;20045;-72
2023/09/09 06:29:10;;;;;;;7.63;7.07;;;;;;;18.60;100.00;101072.28;6117001;23;20112;-73
2023/09/09 06:31:36;;;;;;;8.10;7.50;;;;;;;18.77;100.00;101071.78;6111981;23;20093;-73
2023/09/09 06:34:04;;;;;;;8.63;7.88;;;;;;;18.87;100.00;101056.78;6113608;23;20097;-73
2023/09/09 06:36:30;;;;;;;8.10;7.38;;;;;;;19.07;100.00;101063.13;6110346;23;20037;-73
2023/09/09 06:38:57;;;;;;;8.05;7.40;;;;;;;18.98;100.00;101013.34;6118545;23;20056;-71
2023/09/09 06:41:23;;;;;;;7.63;7.03;;;;;;;19.36;100.00;101045.72;6113202;23;20021;-75
2023/09/09 06:43:50;;;;;;;8.55;6.88;;;;;;;19.48;100.00;101029.59;6120697;23;20041;-73
2023/09/09 06:46:18;;;;;;;8.32;7.53;;;;;;;19.48;100.00;100994.13;6108244;23;20025;-74
2023/09/09 06:48:44;;;;;;;8.27;7.57;;;;;;;19.69;100.00;101002.09;6117167;23;20024;-74
2023/09/09 06:51:11;;;;;;;7.57;6.97;;;;;;;19.68;100.00;100987.09;6116460;23;20052;-75
2023/09/09 06:53:37;;;;;;;7.38;6.78;;;;;;;19.82;100.00;101000.06;6112755;23;20009;-72
2023/09/09 06:56:04;;;;;;;8.55;7.85;;;;;;;19.86;100.00;100980.19;6112867;23;20037;-73
2023/09/09 06:58:30;;;;;;;8.07;7.32;;;;;;;19.79;100.00;100954.25;6112217;23;20049;-73
2023/09/09 07:00:57;;;;;;;8.07;7.43;;;;;;;20.12;100.00;100964.56;6111725;23;20054;-73
2023/09/09 07:03:23;;;;;;;8.50;7.70;;;;;;;20.25;100.00;100959.03;6113121;23;20165;-73
2023/09/09 07:05:50;;;;;;;8.45;7.50;;;;;;;19.90;98.22;100875.06;6084722;23;20021;-74
2023/09/09 07:08:16;;;;;;;8.40;7.63;;;;;;;20.41;96.13;100915.84;6110110;23;20026;-73
2023/09/09 07:10:53;;;;;;;9.10;7.85;;;;;;;20.45;95.23;100890.59;6112527;23;20101;-72
2023/09/09 07:13:23;;;;;;;8.35;7.55;;;;;;;20.60;93.68;100879.53;6118103;23;20025;-75
2023/09/09 07:15:53;;;;;;;7.60;7.00;;;;;;;20.92;92.75;100896.06;6112110;23;20100;-72
2023/09/09 07:18:20;;;;;;;8.30;7.60;;;;;;;20.88;91.60;100856.47;6113820;23;20082;-73
2023/09/09 07:20:48;;;;;;;7.00;6.50;;;;;;;21.15;91.35;100889.56;6119543;23;20033;-73
2023/09/09 07:23:15;;;;;;;8.07;7.40;;;;;;;21.06;91.11;100856.59;6095683;23;20088;-74
2023/09/09 07:25:43;;;;;;;7.93;7.22;;;;;;;21.40;90.04;100870.25;6115063;23;20032;-74
2023/09/09 07:28:11;;;;;;;8.23;7.53;;;;;;;21.27;89.98;100835.03;6115344;23;20049;-72
2023/09/09 07:30:37;;;;;;;8.20;7.47;;;;;;;21.59;88.20;100860.50;6111395;23;20027;-73
2023/09/09 07:33:04;;;;;;;8.05;7.43;;;;;;;21.42;88.51;100820.19;6115647;23;20531;-74
2023/09/09 07:35:32;;;;;;;8.80;8.10;;;;;;;21.62;87.22;100831.66;6112982;23;20017;-73
2023/09/09 07:37:59;;;;;;;8.52;7.82;;;;;;;21.71;86.34;100811.25;6082956;23;20472;-73
2023/09/09 07:40:25;;;;;;;8.68;7.90;;;;;;;21.62;87.23;100809.47;6085552;23;20091;-72
2023/09/09 07:42:53;;;;;;;8.60;7.80;;;;;;;21.81;86.37;100809.34;6113550;23;20476;-75
2023/09/09 07:45:20;;;;;;;8.23;7.53;;;;;;;22.10;85.06;100822.50;6078049;23;20041;-73
2023/09/09 07:47:47;;;;;;;9.02;7.40;;;;;;;22.36;84.65;100842.31;6116020;23;20033;-74
2023/09/09 07:50:13;;;;;;;8.13;7.43;;;;;;;22.19;83.43;100783.34;6095237;23;20033;-74
2023/09/09 07:52:40;;;;;;;8.63;7.85;;;;;;;22.30;82.71;100793.81;6113317;23;21320;-73
2023/09/09 07:55:07;;;;;;;8.57;7.93;;;;;;;22.27;82.55;100775.41;6092399;23;20061;-74
2023/09/09 07:57:33;;;;;;;8.63;7.93;;;;;;;22.30;81.42;100753.69;6111387;23;20039;-74
2023/09/09 08:00:00;;;;;;;8.20;7.38;;;;;;;22.89;82.10;100838.72;6081822;23;20025;-73
2023/09/09 08:02:27;;;;;;;8.35;7.50;;;;;;;22.88;80.78;100813.78;6109628;23;20045;-74
2023/09/09 08:04:53;;;;;;;7.70;7.10;;;;;;;23.19;79.76;100842.78;6109470;23;20034;-74
2023/09/09 08:07:20;;;;;;;8.43;7.72;;;;;;;23.33;79.38;100835.97;6111114;23;21560;-74
2023/09/09 08:09:46;;;;;;;8.50;7.88;;;;;;;23.09;79.15;100797.41;6110810;23;20026;-74
2023/09/09 08:12:13;;;;;;;8.45;7.75;;;;;;;23.23;78.36;100803.13;6093628;23;20469;-72
2023/09/09 08:14:43;;;;;;;9.18;8.27;;;;;;;23.38;78.76;100828.31;6099061;23;20030;-71
2023/09/09 08:17:10;;;;;;;8.52;7.75;;;;;;;23.54;78.37;100846.31;6112274;23;20038;-74
2023/09/09 08:19:36;;;;;;;8.70;8.00;;;;;;;23.88;77.04;100848.97;6114306;23;20018;-74
2023/09/09 08:22:03;;;;;;;11.07;8.25;;;;;;;23.87;76.26;100817.81;6116912;23;20086;-72
2023/09/09 08:24:29;;;;;;;8.57;7.95;;;;;;;24.11;76.30;100851.00;6115616;23;20048;-72
2023/09/09 08:26:56;;;;;;;8.30;7.60;;;;;;;23.88;75.42;100781.94;6112875;23;20025;-75
2023/09/09 08:29:23;;;;;;;9.80;8.35;;;;;;;24.34;74.83;100837.81;6113476;23;20025;-72
2023/09/09 08:31:49;;;;;;;8.13;7.55;;;;;;;24.40;73.82;100814.84;6115569;23;20018;-72
2023/09/09 08:34:16;;;;;;;8.73;8.00;;;;;;;24.42;73.29;100815.53;6116249;23;20077;-74
2023/09/09 08:36:42;;;;;;;8.35;7.75;;;;;;;24.68;73.58;100859.16;6089131;23;20605;-74
2023/09/09 08:39:11;;;;;;;8.68;7.88;;;;;;;24.73;73.48;100858.63;6120575;23;20189;-75
2023/09/09 08:42:02;;;;;;;9.02;8.32;;;;;;;24.77;73.25;100861.81;6116121;23;20089;-75
2023/09/09 08:44:47;;;;;;;8.55;7.82;;;;;;;24.79;71.79;100844.53;6092110;23;20612;-73
2023/09/09 08:47:17;;;;;;;9.20;8.25;;;;;;;24.87;73.37;100882.09;6095154;23;20026;-74
2023/09/09 08:49:47;;;;;;;9.25;8.50;;;;;;;24.92;73.04;100887.00;6118652;23;20693;-73
2023/09/09 08:52:24;;;;;;;8.82;8.00;;;;;;;25.15;72.89;100899.69;6117577;23;20029;-74
2023/09/09 08:54:52;;;;;;;8.63;7.93;;;;;;;25.10;71.65;100843.81;6083707;23;20025;-71
2023/09/09 08:57:18;;;;;;;9.02;8.18;;;;;;;25.16;71.88;100887.94;6116655;23;20630;-73
2023/09/09 08:59:47;;;;;;;10.10;9.20;;;;;;;24.58;70.18;100729.69;6088701;23;20259;-72
2023/09/09 09:02:13;;;;;;;9.05;8.30;;;;;;;25.36;70.60;100883.03;6116116;23;20758;-72
2023/09/09 09:04:41;;;;;;;8.95;8.25;;;;;;;25.25;70.28;100841.28;6114921;23;20013;-72
2023/09/09 09:07:08;;;;;;;8.63;7.93;;;;;;;25.54;69.85;100855.94;6118277;23;20025;-74
2023/09/09 09:09:34;;;;;;;8.98;8.27;;;;;;;25.78;68.27;100842.41;6112758;23;20089;-74
2023/09/09 09:12:04;;;;;;;8.43;7.82;;;;;;;25.90;68.10;100858.13;6113460;23;20045;-72
2023/09/09 09:14:31;;;;;;;8.65;8.02;;;;;;;25.98;67.75;100850.03;6117365;23;20029;-74
2023/09/09 09:16:57;;;;;;;8.77;7.97;;;;;;;25.27;67.22;100729.13;6067804;23;20029;-72
2023/09/09 09:19:29;;;;;;;9.35;8.55;;;;;;;26.27;67.59;100876.25;6116131;23;20119;-73
2023/09/09 09:21:56;;;;;;;9.17;8.17;;;;;;;26.02;67.52;100819.94;6112481;23;20021;-73
2023/09/09 09:24:28;;;;;;;9.07;8.35;;;;;;;26.44;67.34;100863.50;6095119;23;20386;-73
2023/09/09 09:26:58;;;;;;;8.25;7.55;;;;;;;26.10;66.67;100815.50;6121267;23;20021;-72
2023/09/09 09:29:38;;;;;;;8.68;8.07;;;;;;;26.41;67.98;100890.81;6115793;23;20103;-72
2023/09/09 09:32:05;;;;;;;9.07;8.27;;;;;;;26.66;65.41;100848.38;6108433;23;20020;-72
2023/09/09 09:34:33;;;;;;;8.93;8.13;;;;;;;26.78;65.54;100844.25;6115175;23;20025;-73
2023/09/09 09:37:20;;;;;;;10.00;8.85;;;;;;;26.80;64.43;100814.44;6095693;23;20025;-75
2023/09/09 09:39:46;;;;;;;13.57;8.30;;;;;;;26.57;63.81;100752.56;6089229;23;20033;-73
2023/09/09 09:42:13;;;;;;;8.68;7.93;;;;;;;26.70;63.26;100762.72;6111661;23;20021;-74
2023/09/09 09:44:39;;;;;;;8.65;7.85;;;;;;;27.19;63.44;100818.75;6109002;23;20660;-75
2023/09/09 09:47:08;;;;;;;8.73;8.02;;;;;;;27.37;61.81;100781.50;6112476;23;20072;-76
2023/09/09 09:49:36;;;;;;;9.18;8.48;;;;;;;27.50;62.21;100799.69;6114876;23;20100;-75
2023/09/09 09:52:06;;;;;;;8.05;7.38;;;;;;;27.71;61.08;100784.59;6113961;23;20017;-72
2023/09/09 09:54:34;;;;;;;8.57;7.93;;;;;;;27.65;59.99;100740.34;6113300;23;20029;-76
2023/09/09 09:57:05;;;;;;;8.82;7.93;;;;;;;27.78;60.27;100788.19;6091646;23;20017;-73
2023/09/09 09:59:34;;;;;;;8.80;7.97;;;;;;;27.83;60.10;100740.72;6090543;23;20014;-72
2023/09/09 10:02:03;;;;;;;8.88;8.07;;;;;;;27.95;60.03;100772.63;6117907;23;20083;-73
2023/09/09 10:04:38;;;;;;;8.80;8.05;;;;;;;27.87;59.26;100732.28;6117788;23;20510;-72
2023/09/09 10:07:13;;;;;;;8.70;8.00;;;;;;;28.16;60.03;100802.28;6112276;23;20010;-72
2023/09/09 10:09:56;;;;;;;8.43;7.82;;;;;;;28.36;59.34;100780.88;6116621;23;20056;-72
2023/09/09 10:12:30;;;;;;;8.27;7.60;;;;;;;28.45;58.23;100758.09;6090715;23;20041;-74
2023/09/09 10:15:15;;;;;;;8.77;8.07;;;;;;;28.28;58.15;100729.72;6114210;23;20033;-72
2023/09/09 10:17:43;;;;;;;9.48;8.52;;;;;;;28.71;58.29;100782.84;6084673;23;20574;-72
2023/09/09 10:20:11;;;;;;;8.52;7.93;;;;;;;28.77;58.29;100773.94;6114369;23;20033;-73
2023/09/09 10:22:41;;;;;;;8.93;8.00;;;;;;;28.69;57.30;100745.22;6121559;23;20095;-73
2023/09/09 10:25:10;;;;;;;8.73;7.93;;;;;;;28.67;56.04;100690.56;6117230;23;20715;-74
2023/09/09 10:27:39;;;;;;;8.35;7.68;;;;;;;28.83;56.86;100748.84;6061744;23;20034;-72
2023/09/09 10:30:08;;;;;;;8.93;8.13;;;;;;;29.07;56.78;100762.88;6108386;23;20049;-71
2023/09/09 10:32:35;;;;;;;8.90;8.23;;;;;;;28.72;57.34;100741.28;6087587;23;20375;-72
2023/09/09 10:35:05;;;;;;;8.43;7.80;;;;;;;28.53;57.92;100723.94;6120970;23;20110;-73
2023/09/09 10:37:34;;;;;;;8.60;7.90;;;;;;;28.97;56.78;100757.84;6077032;23;20040;-73
2023/09/09 10:40:03;;;;;;;7.95;7.45;;;;;;;29.41;56.16;100783.66;6091018;23;20092;-74
2023/09/09 10:42:30;;;;;;;8.23;7.63;;;;;;;29.16;56.48;100738.22;6114331;23;20058;-71
2023/09/09 10:45:30;;;;;;;8.43;7.82;;;;;;;29.72;55.22;100785.03;6115922;23;20063;-73
2023/09/09 10:48:07;;;;;;;9.13;8.20;;;;;;;29.42;55.79;100737.47;6116149;23;20032;-71
2023/09/09 10:50:51;;;;;;;10.05;8.70;;;;;;;29.79;54.27;100729.91;6113546;23;20030;-75
2023/09/09 10:53:26;;;;;;;8.30;7.60;;;;;;;30.01;55.41;100791.97;6091470;23;20041;-72
2023/09/09 10:56:00;;;;;;;8.38;7.78;;;;;;;29.69;54.36;100763.75;6089304;23;20021;-72
2023/09/09 10:58:45;;;;;;;9.20;8.02;;;;;;;29.66;53.39;100713.59;6088105;23;20033;-72
2023/09/09 11:01:23;;;;;;;8.60;7.90;;;;;;;29.28;54.49;100675.47;6111970;23;20027;-72
2023/09/09 11:03:51;;;;;;;8.68;7.95;;;;;;;28.63;55.44;100640.69;6110166;23;20033;-73
2023/09/09 11:06:27;;;;;;;8.73;7.93;;;;;;;29.55;54.58;100785.38;6085634;23;20078;-73
2023/09/09 11:08:56;;;;;;;8.38;7.68;;;;;;;29.82;54.87;100785.47;6085586;23;20024;-72
2023/09/09 11:11:37;;;;;;;8.27;7.68;;;;;;;29.94;55.50;100820.88;6098971;23;20507;-75
2023/09/09 11:14:05;;;;;;;8.65;7.88;;;;;;;30.03;54.79;100803.41;6088656;23;20036;-72
2023/09/09 11:16:40;;;;;;;8.40;7.53;;;;;;;30.36;53.63;100802.63;6113385;23;20669;-71
2023/09/09 11:19:12;;;;;;;8.57;7.80;;;;;;;30.42;52.80;100780.97;6115548;23;20025;-73
2023/09/09 11:21:52;;;;;;;8.48;7.78;;;;;;;30.21;51.42;100653.94;6089142;23;20091;-74
2023/09/09 11:24:22;;;;;;;8.13;7.50;;;;;;;30.31;51.91;100696.81;6113239;23;20574;-71